createdAt,value
2018-04-15T00:00:55.664Z,65.80
2018-04-15T00:03:24.555Z,66.90
2018-04-15T00:05:54.361Z,65.20
2018-04-15T00:08:23.316Z,65.20
2018-04-15T00:10:52.323Z,65.00
2018-04-15T00:13:21.237Z,64.40
2018-04-15T00:15:50.117Z,65.40
2018-04-15T00:18:19.092Z,64.50
2018-04-15T00:20:48.890Z,63.80
2018-04-15T00:23:17.862Z,63.70
2018-04-15T00:25:46.876Z,63.10
2018-04-15T00:28:15.768Z,62.80
2018-04-15T00:30:44.643Z,62.30
2018-04-15T00:33:13.569Z,62.40
2018-04-15T00:35:42.456Z,60.60
2018-04-15T00:38:11.339Z,59.80
2018-04-15T00:40:40.298Z,61.40
2018-04-15T00:43:09.452Z,62.20
2018-04-15T00:45:38.334Z,61.70
2018-04-15T00:48:07.220Z,61.30
2018-04-15T00:50:36.143Z,62.30
2018-04-15T00:53:05.852Z,62.40
2018-04-15T00:55:34.768Z,62.40
2018-04-15T00:58:03.655Z,61.90
2018-04-15T01:00:32.533Z,61.10
2018-04-15T01:03:02.308Z,62.00
2018-04-15T01:05:31.218Z,62.00
2018-04-15T01:08:00.127Z,61.90
2018-04-15T01:10:29.016Z,62.00
2018-04-15T01:12:58.735Z,62.90
2018-04-15T01:15:27.657Z,62.90
2018-04-15T01:17:56.605Z,63.20
2018-04-15T01:20:25.559Z,64.20
2018-04-15T01:22:54.548Z,63.80
2018-04-15T01:25:23.476Z,63.30
2018-04-15T01:27:53.155Z,64.50
2018-04-15T01:30:22.424Z,64.50
2018-04-15T01:32:51.441Z,64.10
2018-04-15T01:35:20.341Z,63.70
2018-04-15T01:37:49.246Z,64.60
2018-04-15T01:40:18.155Z,64.90
2018-04-15T01:42:47.128Z,65.00
2018-04-15T01:45:16.004Z,64.90
2018-04-15T01:47:44.919Z,64.80
2018-04-15T01:50:13.819Z,65.20
2018-04-15T01:52:42.876Z,65.50
2018-04-15T01:55:11.869Z,65.50
2018-04-15T01:57:40.767Z,65.30
2018-04-15T02:00:09.649Z,65.20
2018-04-15T02:02:38.575Z,65.00
2018-04-15T02:05:07.605Z,65.10
2018-04-15T02:07:36.463Z,66.00
2018-04-15T02:10:05.497Z,66.40
2018-04-15T02:12:34.395Z,66.40
2018-04-15T02:15:03.366Z,65.80
2018-04-15T02:17:32.265Z,66.40
2018-04-15T02:20:01.155Z,66.50
2018-04-15T02:22:30.052Z,67.70
2018-04-15T02:24:58.924Z,67.10
2018-04-15T02:27:27.888Z,66.70
2018-04-15T02:29:56.840Z,65.40
2018-04-15T02:32:25.768Z,65.40
2018-04-15T02:34:55.565Z,65.60
2018-04-15T02:37:24.480Z,65.40
2018-04-15T02:39:53.368Z,65.80
2018-04-15T02:42:23.165Z,65.90
2018-04-15T02:44:52.096Z,65.80
2018-04-15T02:47:21.015Z,66.00
2018-04-15T02:49:49.949Z,65.70
2018-04-15T02:52:18.830Z,67.50
2018-04-15T02:54:47.878Z,67.40
2018-04-15T02:57:17.089Z,68.50
2018-04-15T02:59:45.989Z,68.60
2018-04-15T03:02:14.882Z,67.90
2018-04-15T03:04:43.887Z,67.70
2018-04-15T03:07:12.768Z,67.60
2018-04-15T03:09:41.658Z,67.80
2018-04-15T03:12:10.573Z,67.60
2018-04-15T03:14:40.140Z,66.60
2018-04-15T03:17:09.093Z,66.10
2018-04-15T03:19:38.753Z,67.00
2018-04-15T03:22:07.736Z,67.00
2018-04-15T03:24:36.708Z,67.90
2018-04-15T03:27:05.711Z,67.60
2018-04-15T03:29:34.651Z,66.60
2018-04-15T03:32:04.285Z,66.60
2018-04-15T03:34:33.180Z,66.60
2018-04-15T03:37:02.047Z,67.90
2018-04-15T03:39:31.700Z,68.20
2018-04-15T03:42:00.600Z,68.20
2018-04-15T03:44:29.548Z,67.90
2018-04-15T03:46:58.508Z,68.70
2018-04-15T03:49:27.496Z,68.70
2018-04-15T03:51:56.371Z,69.00
2018-04-15T03:54:25.263Z,69.00
2018-04-15T03:56:54.188Z,68.20
2018-04-15T03:59:23.835Z,69.20
2018-04-15T04:01:53.212Z,69.20
2018-04-15T04:04:22.880Z,69.80
2018-04-15T04:06:51.765Z,69.80
2018-04-15T04:09:20.742Z,68.70
2018-04-15T04:11:49.636Z,69.80
2018-04-15T04:14:18.603Z,70.50
2018-04-15T04:16:47.492Z,70.40
2018-04-15T04:19:34.200Z,71.10
2018-04-15T04:25:34.017Z,69.30
2018-04-15T04:28:02.885Z,68.30
2018-04-15T04:30:31.784Z,67.80
2018-04-15T04:33:01.472Z,68.60
2018-04-15T04:35:30.452Z,68.60
2018-04-15T04:37:59.351Z,68.70
2018-04-15T04:40:28.335Z,68.70
2018-04-15T04:42:57.204Z,69.00
2018-04-15T04:45:26.159Z,69.80
2018-04-15T04:47:55.116Z,69.50
2018-04-15T04:50:23.996Z,69.50
2018-04-15T04:52:52.888Z,69.90
2018-04-15T04:55:21.920Z,69.70
2018-04-15T04:57:50.937Z,68.90
2018-04-15T05:00:20.182Z,68.90
2018-04-15T05:02:49.237Z,68.90
2018-04-15T05:05:18.158Z,68.90
2018-04-15T05:07:47.898Z,68.10
2018-04-15T05:10:16.840Z,68.00
2018-04-15T05:12:45.753Z,67.80
2018-04-15T05:15:14.780Z,68.10
2018-04-15T05:17:43.882Z,69.00
2018-04-15T05:20:12.848Z,68.50
2018-04-15T05:22:41.739Z,68.40
2018-04-15T05:25:10.640Z,67.70
2018-04-15T05:27:39.814Z,66.80
2018-04-15T05:30:08.783Z,66.60
2018-04-15T05:32:37.780Z,66.30
2018-04-15T05:35:06.700Z,66.10
2018-04-15T05:37:35.648Z,65.90
2018-04-15T05:40:04.607Z,65.60
2018-04-15T05:42:34.293Z,65.70
2018-04-15T05:45:03.192Z,65.50
2018-04-15T05:47:32.124Z,64.70
2018-04-15T05:50:01.896Z,66.00
2018-04-15T05:52:30.879Z,66.00
2018-04-15T05:54:59.809Z,66.40
2018-04-15T05:57:28.752Z,65.90
2018-04-15T05:59:57.781Z,65.60
2018-04-15T06:02:27.496Z,65.00
2018-04-15T06:04:57.207Z,64.40
2018-04-15T06:07:26.863Z,64.00
2018-04-15T06:09:55.884Z,63.80
2018-04-15T06:12:24.897Z,63.90
2018-04-15T06:14:54.568Z,64.10
2018-04-15T06:17:23.490Z,64.10
2018-04-15T06:19:52.739Z,63.80
2018-04-15T06:22:21.757Z,63.80
2018-04-15T06:24:50.796Z,63.10
2018-04-15T06:27:19.715Z,62.80
2018-04-15T06:29:48.621Z,63.60
2018-04-15T06:32:17.555Z,62.80
2018-04-15T06:34:47.205Z,62.40
2018-04-15T06:37:16.128Z,62.40
2018-04-15T06:39:45.052Z,61.80
2018-04-15T06:42:14.707Z,61.80
2018-04-15T06:44:43.632Z,61.70
2018-04-15T06:47:12.631Z,61.80
2018-04-15T06:49:41.526Z,62.70
2018-04-15T06:52:10.628Z,61.90
2018-04-15T06:54:40.299Z,61.90
2018-04-15T06:57:09.204Z,62.60
2018-04-15T06:59:38.212Z,61.30
2018-04-15T07:02:07.134Z,60.60
2018-04-15T07:04:36.262Z,60.60
2018-04-15T07:07:05.202Z,60.40
2018-04-15T07:09:34.967Z,59.10
2018-04-15T07:12:03.880Z,59.10
2018-04-15T07:14:32.801Z,59.00
2018-04-15T07:17:01.702Z,58.70
2018-04-15T07:19:30.618Z,58.60
2018-04-15T07:21:59.633Z,58.20
2018-04-15T07:24:28.548Z,59.00
2018-04-15T07:26:58.478Z,58.30
2018-04-15T07:29:27.372Z,58.20
2018-04-15T07:31:57.217Z,57.90
2018-04-15T07:34:26.243Z,57.80
2018-04-15T07:36:55.167Z,57.30
2018-04-15T07:39:24.864Z,57.20
2018-04-15T07:41:53.995Z,57.10
2018-04-15T07:44:23.164Z,56.90
2018-04-15T07:46:52.878Z,53.40
2018-04-15T07:49:22.563Z,53.10
2018-04-15T07:51:51.452Z,53.10
2018-04-15T07:54:20.399Z,51.80
2018-04-15T07:56:49.352Z,51.10
2018-04-15T07:59:19.024Z,52.40
2018-04-15T08:01:47.936Z,52.30
2018-04-15T08:04:16.998Z,52.80
2018-04-15T08:06:45.963Z,51.80
2018-04-15T08:09:14.865Z,51.50
2018-04-15T08:11:44.808Z,52.00
2018-04-15T08:14:13.744Z,53.10
2018-04-15T08:16:43.838Z,53.10
2018-04-15T08:19:12.923Z,53.00
2018-04-15T08:21:41.852Z,53.40
2018-04-15T08:24:11.526Z,51.20
2018-04-15T08:26:40.448Z,51.30
2018-04-15T08:29:10.104Z,50.90
2018-04-15T08:31:39.012Z,50.80
2018-04-15T08:34:07.955Z,50.50
2018-04-15T08:36:36.885Z,50.50
2018-04-15T08:39:05.901Z,51.10
2018-04-15T08:41:34.821Z,51.00
2018-04-15T08:44:04.580Z,49.80
2018-04-15T08:46:33.611Z,49.80
2018-04-15T08:49:02.644Z,48.60
2018-04-15T08:51:31.544Z,47.80
2018-04-15T08:54:00.496Z,46.70
2018-04-15T08:56:30.160Z,48.40
2018-04-15T08:58:59.054Z,48.40
2018-04-15T09:01:28.756Z,50.40
2018-04-15T09:03:57.691Z,50.30
2018-04-15T09:06:27.398Z,49.80
2018-04-15T09:08:56.355Z,49.80
2018-04-15T09:11:25.267Z,50.40
2018-04-15T09:13:54.155Z,51.00
2018-04-15T09:16:23.093Z,49.70
2018-04-15T09:18:52.008Z,48.90
2018-04-15T09:21:20.945Z,49.60
2018-04-15T09:23:50.053Z,50.00
2018-04-15T09:26:19.770Z,51.00
2018-04-15T09:28:48.819Z,51.00
2018-04-15T09:31:17.797Z,51.80
2018-04-15T09:33:46.831Z,51.20
2018-04-15T09:36:15.912Z,49.50
2018-04-15T09:38:44.956Z,50.50
2018-04-15T09:41:13.870Z,49.50
2018-04-15T09:43:43.734Z,49.90
2018-04-15T09:46:13.480Z,49.70
2018-04-15T09:48:42.484Z,49.70
2018-04-15T09:51:11.394Z,48.80
2018-04-15T09:53:40.377Z,49.00
2018-04-15T09:56:09.648Z,46.90
2018-04-15T09:58:38.633Z,46.70
2018-04-15T10:01:07.619Z,48.20
2018-04-15T10:03:36.678Z,47.10
2018-04-15T10:06:05.720Z,47.40
2018-04-15T10:08:34.662Z,48.10
2018-04-15T10:11:04.583Z,47.40
2018-04-15T10:13:33.476Z,47.60
2018-04-15T10:16:02.473Z,47.90
2018-04-15T10:18:31.458Z,47.10
2018-04-15T10:21:00.452Z,48.20
2018-04-15T10:23:29.383Z,48.90
2018-04-15T10:25:58.295Z,50.90
2018-04-15T10:28:27.223Z,50.50
2018-04-15T10:30:56.431Z,51.00
2018-04-15T10:33:26.206Z,52.20
2018-04-15T10:35:55.198Z,52.10
2018-04-15T10:38:24.103Z,52.70
2018-04-15T10:40:53.025Z,52.30
2018-04-15T10:43:22.711Z,51.70
2018-04-15T10:45:52.485Z,51.50
2018-04-15T10:48:21.377Z,51.50
2018-04-15T10:50:50.280Z,52.00
2018-04-15T10:53:19.171Z,52.00
2018-04-15T10:55:48.120Z,51.70
2018-04-15T10:58:18.794Z,51.10
2018-04-15T11:00:47.757Z,50.60
2018-04-15T11:03:16.679Z,50.20
2018-04-15T11:05:46.397Z,50.90
2018-04-15T11:08:15.322Z,50.90
2018-04-15T11:10:44.248Z,50.90
2018-04-15T11:13:13.140Z,51.10
2018-04-15T11:15:42.077Z,51.20
2018-04-15T11:18:11.082Z,51.00
2018-04-15T11:20:40.076Z,51.50
2018-04-15T11:23:09.892Z,50.90
2018-04-15T11:25:39.665Z,50.50
2018-04-15T11:28:08.524Z,50.60
2018-04-15T11:30:37.431Z,49.60
2018-04-15T11:33:06.321Z,49.80
2018-04-15T11:35:35.291Z,49.80
2018-04-15T11:38:04.325Z,49.40
2018-04-15T11:40:33.288Z,48.90
2018-04-15T11:43:02.203Z,48.80
2018-04-15T11:45:31.285Z,48.10
2018-04-15T11:48:00.180Z,49.20
2018-04-15T11:50:29.107Z,49.50
2018-04-15T11:52:58.121Z,47.80
2018-04-15T11:55:27.739Z,48.10
2018-04-15T11:57:56.913Z,48.10
2018-04-15T12:00:26.565Z,48.20
2018-04-15T12:02:55.455Z,48.20
2018-04-15T12:05:24.460Z,48.70
2018-04-15T12:07:54.169Z,49.10
2018-04-15T12:10:23.108Z,49.10
2018-04-15T12:12:52.084Z,49.50
2018-04-15T12:15:21.072Z,49.50
2018-04-15T12:17:50.072Z,49.70
2018-04-15T12:20:19.109Z,49.30
2018-04-15T12:22:48.090Z,49.50
2018-04-15T12:25:17.840Z,50.70
2018-04-15T12:27:47.541Z,50.10
2018-04-15T12:30:16.474Z,50.10
2018-04-15T12:32:45.407Z,50.60
2018-04-15T12:35:14.356Z,49.90
2018-04-15T12:37:43.281Z,50.00
2018-04-15T12:40:12.290Z,49.80
2018-04-15T12:42:41.332Z,49.30
2018-04-15T12:45:10.293Z,48.90
2018-04-15T12:47:39.920Z,49.60
2018-04-15T12:50:08.877Z,49.60
2018-04-15T12:52:37.818Z,49.10
2018-04-15T12:55:06.732Z,48.10
2018-04-15T12:57:35.748Z,48.70
2018-04-15T13:00:04.779Z,48.50
2018-04-15T13:02:33.770Z,48.70
2018-04-15T13:05:02.802Z,48.80
2018-04-15T13:07:32.576Z,49.20
2018-04-15T13:10:01.723Z,49.10
2018-04-15T13:12:30.714Z,48.70
2018-04-15T13:14:59.641Z,48.60
2018-04-15T13:17:28.717Z,48.70
2018-04-15T13:19:57.829Z,48.70
2018-04-15T13:22:26.763Z,49.10
2018-04-15T13:24:56.501Z,48.80
2018-04-15T13:27:26.150Z,48.70
2018-04-15T13:29:55.105Z,48.70
2018-04-15T13:32:24.128Z,48.90
2018-04-15T13:34:53.298Z,48.70
2018-04-15T13:37:22.203Z,48.40
2018-04-15T13:39:51.223Z,48.80
2018-04-15T13:42:20.409Z,48.80
2018-04-15T13:44:49.321Z,49.10
2018-04-15T13:47:18.304Z,48.80
2018-04-15T13:49:47.171Z,49.00
2018-04-15T13:52:16.192Z,48.30
2018-04-15T13:54:45.348Z,48.40
2018-04-15T13:57:14.585Z,48.60
2018-04-15T13:59:43.484Z,48.50
2018-04-15T14:02:12.555Z,49.20
2018-04-15T14:04:41.551Z,48.80
2018-04-15T14:07:10.481Z,48.90
2018-04-15T14:09:39.423Z,49.00
2018-04-15T14:12:08.336Z,49.40
2018-04-15T14:14:37.264Z,49.70
2018-04-15T14:17:06.912Z,50.00
2018-04-15T14:19:35.885Z,50.00
2018-04-15T14:22:04.880Z,49.70
2018-04-15T14:24:33.820Z,50.00
2018-04-15T14:27:02.724Z,50.60
2018-04-15T14:29:31.787Z,50.30
2018-04-15T14:32:01.016Z,51.10
2018-04-15T14:34:29.956Z,50.60
2018-04-15T14:36:58.916Z,50.50
2018-04-15T14:39:27.967Z,50.80
2018-04-15T14:41:56.932Z,50.80
2018-04-15T14:44:26.104Z,51.20
2018-04-15T14:46:54.975Z,51.50
2018-04-15T14:49:23.915Z,52.20
2018-04-15T14:51:52.837Z,52.10
2018-04-15T14:54:21.767Z,52.60
2018-04-15T14:56:50.853Z,53.30
2018-04-15T14:59:20.348Z,52.70
2018-04-15T15:01:49.321Z,52.70
2018-04-15T15:04:18.265Z,53.10
2018-04-15T15:06:47.254Z,53.10
2018-04-15T15:09:16.217Z,53.20
2018-04-15T15:11:45.113Z,53.00
2018-04-15T15:14:14.045Z,53.30
2018-04-15T15:16:43.076Z,53.10
2018-04-15T15:19:12.102Z,53.00
2018-04-15T15:21:41.821Z,52.90
2018-04-15T15:24:10.732Z,52.90
2018-04-15T15:26:39.723Z,52.90
2018-04-15T15:29:08.648Z,52.90
2018-04-15T15:31:37.576Z,53.20
2018-04-15T15:34:07.261Z,53.50
2018-04-15T15:36:36.445Z,53.40
2018-04-15T15:39:07.365Z,53.20
2018-04-15T15:41:36.285Z,53.40
2018-04-15T15:44:05.352Z,53.50
2018-04-15T15:46:34.482Z,53.50
2018-04-15T15:49:03.768Z,53.40
2018-04-15T15:51:32.684Z,53.40
2018-04-15T15:54:01.876Z,53.40
2018-04-15T15:56:30.861Z,53.70
2018-04-15T15:58:59.780Z,53.60
2018-04-15T16:01:28.698Z,54.00
2018-04-15T16:03:57.669Z,53.90
2018-04-15T16:06:26.680Z,53.90
2018-04-15T16:08:55.605Z,54.10
2018-04-15T16:11:24.636Z,54.30
2018-04-15T16:13:54.445Z,54.10
2018-04-15T16:16:23.427Z,54.00
2018-04-15T16:18:52.392Z,54.20
2018-04-15T16:21:21.456Z,54.40
2018-04-15T16:23:50.374Z,54.60
2018-04-15T16:26:19.296Z,54.50
2018-04-15T16:28:48.166Z,54.60
2018-04-15T16:31:17.094Z,54.70
2018-04-15T16:33:46.761Z,55.40
2018-04-15T16:36:15.669Z,55.50
2018-04-15T16:38:44.724Z,55.60
2018-04-15T16:41:13.786Z,56.00
2018-04-15T16:43:42.661Z,56.50
2018-04-15T16:46:11.822Z,56.60
2018-04-15T16:48:40.791Z,56.80
2018-04-15T16:51:09.719Z,57.50
2018-04-15T16:53:38.604Z,58.40
2018-04-15T16:56:07.551Z,58.50
2018-04-15T16:58:36.505Z,59.20
2018-04-15T17:01:06.629Z,59.00
2018-04-15T17:03:36.301Z,59.30
2018-04-15T17:06:05.347Z,59.30
2018-04-15T17:08:35.028Z,59.30
2018-04-15T17:11:04.032Z,59.30
2018-04-15T17:13:33.724Z,60.20
2018-04-15T17:16:02.876Z,60.30
2018-04-15T17:18:31.839Z,61.10
2018-04-15T17:21:01.496Z,61.70
2018-04-15T17:23:30.381Z,61.70
2018-04-15T17:25:59.328Z,61.50
2018-04-15T17:28:28.261Z,61.60
2018-04-15T17:30:57.148Z,61.70
2018-04-15T17:33:26.123Z,62.00
2018-04-15T17:35:55.786Z,62.10
2018-04-15T17:38:24.697Z,62.00
2018-04-15T17:40:54.452Z,62.30
2018-04-15T17:43:23.343Z,62.30
2018-04-15T17:45:52.341Z,63.00
2018-04-15T17:48:21.386Z,62.20
2018-04-15T17:50:50.429Z,62.00
2018-04-15T17:53:19.350Z,61.90
2018-04-15T17:55:48.361Z,62.10
2018-04-15T17:58:17.376Z,61.90
2018-04-15T18:00:47.083Z,61.90
2018-04-15T18:03:16.825Z,62.00
2018-04-15T18:05:45.733Z,62.00
2018-04-15T18:08:14.730Z,63.00
2018-04-15T18:10:43.697Z,62.20
2018-04-15T18:13:12.707Z,62.40
2018-04-15T18:15:41.769Z,62.50
2018-04-15T18:18:10.716Z,63.60
2018-04-15T18:20:39.648Z,63.10
2018-04-15T18:23:08.674Z,63.00
2018-04-15T18:25:37.694Z,63.20
2018-04-15T18:28:07.192Z,63.20
2018-04-15T18:30:37.150Z,63.40
2018-04-15T18:33:06.820Z,63.20
2018-04-15T18:35:35.798Z,63.20
2018-04-15T18:38:04.747Z,63.00
2018-04-15T18:40:33.932Z,63.00
2018-04-15T18:43:03.632Z,62.90
2018-04-15T18:45:32.631Z,62.90
2018-04-15T18:48:01.872Z,62.90
2018-04-15T18:50:31.280Z,62.90
2018-04-15T18:53:00.393Z,63.00
2018-04-15T18:55:29.388Z,62.80
2018-04-15T18:57:58.533Z,62.90
2018-04-15T19:00:27.504Z,62.90
2018-04-15T19:02:57.341Z,63.20
2018-04-15T19:05:26.325Z,63.10
2018-04-15T19:07:56.169Z,63.20
2018-04-15T19:10:25.165Z,63.20
2018-04-15T19:12:54.097Z,63.60
2018-04-15T19:15:23.073Z,63.30
2018-04-15T19:17:52.005Z,63.60
2018-04-15T19:20:20.894Z,64.00
2018-04-15T19:22:50.694Z,63.90
2018-04-15T19:25:19.699Z,63.90
2018-04-15T19:27:49.476Z,64.10
2018-04-15T19:30:18.516Z,64.00
2018-04-15T19:32:47.418Z,64.20
2018-04-15T19:35:16.378Z,64.10
2018-04-15T19:37:45.301Z,64.30
2018-04-15T19:40:15.584Z,65.00
2018-04-15T19:42:44.493Z,64.90
2018-04-15T19:45:13.489Z,65.90
2018-04-15T19:47:43.206Z,65.00
2018-04-15T19:50:12.136Z,65.00
2018-04-15T19:52:41.279Z,65.10
2018-04-15T19:55:11.034Z,65.70
2018-04-15T19:57:39.959Z,65.70
2018-04-15T20:00:08.946Z,65.90
2018-04-15T20:02:37.844Z,66.20
2018-04-15T20:05:06.804Z,66.20
2018-04-15T20:07:35.743Z,66.50
2018-04-15T20:10:04.954Z,66.70
2018-04-15T20:12:33.903Z,66.70
2018-04-15T20:15:02.822Z,66.70
2018-04-15T20:17:33.721Z,66.70
2018-04-15T20:20:02.698Z,66.70
2018-04-15T20:22:31.644Z,66.70
2018-04-15T20:25:00.634Z,66.90
2018-04-15T20:27:29.623Z,67.10
2018-04-15T20:29:58.523Z,67.10
2018-04-15T20:32:28.208Z,67.70
2018-04-15T20:34:57.388Z,67.70
2018-04-15T20:37:26.321Z,67.60
2018-04-15T20:39:56.069Z,68.10
2018-04-15T20:42:25.002Z,68.00
2018-04-15T20:44:53.995Z,68.20
2018-04-15T20:47:23.040Z,68.60
2018-04-15T20:49:52.109Z,69.00
2018-04-15T20:52:21.043Z,68.60
2018-04-15T20:54:50.055Z,68.60
2018-04-15T20:57:19.004Z,68.60
2018-04-15T20:59:49.550Z,68.80
2018-04-15T21:02:18.446Z,68.90
2018-04-15T21:04:47.424Z,68.60
2018-04-15T21:07:16.455Z,68.40
2018-04-15T21:09:45.454Z,68.50
2018-04-15T21:12:14.384Z,68.30
2018-04-15T21:14:43.477Z,68.20
2018-04-15T21:17:12.451Z,68.20
2018-04-15T21:19:41.518Z,68.40
2018-04-15T21:22:11.657Z,68.70
2018-04-15T21:24:40.548Z,68.70
2018-04-15T21:27:09.581Z,68.40
2018-04-15T21:29:38.616Z,68.50
2018-04-15T21:32:07.539Z,68.60
2018-04-15T21:34:37.249Z,68.40
2018-04-15T21:37:06.261Z,68.30
2018-04-15T21:39:35.199Z,68.40
2018-04-15T21:42:04.242Z,68.50
2018-04-15T21:44:33.149Z,68.40
2018-04-15T21:47:02.322Z,68.20
2018-04-15T21:49:31.969Z,68.20
2018-04-15T21:52:00.870Z,68.20
2018-04-15T21:54:30.609Z,69.50
2018-04-15T21:56:59.692Z,68.50
2018-04-15T21:59:29.228Z,68.60
2018-04-15T22:01:58.980Z,68.60
2018-04-15T22:04:28.024Z,68.60
2018-04-15T22:06:56.997Z,68.60
2018-04-15T22:09:25.989Z,68.30
2018-04-15T22:12:12.648Z,68.60
2018-04-15T22:14:41.773Z,68.50
2018-04-15T22:17:10.717Z,68.50
2018-04-15T22:19:40.412Z,68.70
2018-04-15T22:22:10.112Z,69.70
2018-04-15T22:24:39.022Z,68.80
2018-04-15T22:27:08.779Z,69.00
2018-04-15T22:29:37.707Z,69.00
2018-04-15T22:32:06.640Z,69.10
2018-04-15T22:34:36.378Z,69.50
2018-04-15T22:37:05.350Z,69.50
2018-04-15T22:39:34.383Z,69.70
2018-04-15T22:42:03.365Z,69.50
2018-04-15T22:44:32.575Z,69.10
2018-04-15T22:47:01.523Z,68.80
2018-04-15T22:49:31.338Z,69.10
2018-04-15T22:52:02.570Z,69.00
2018-04-15T22:54:31.786Z,69.00
2018-04-15T22:57:06.400Z,69.10
2018-04-15T22:59:35.491Z,69.10
2018-04-15T23:02:17.844Z,69.10
2018-04-15T23:04:51.334Z,69.10
2018-04-15T23:07:20.454Z,69.00
2018-04-15T23:09:50.830Z,69.10
2018-04-15T23:12:19.822Z,69.50
2018-04-15T23:14:48.760Z,69.10
2018-04-15T23:17:17.681Z,68.90
2018-04-15T23:19:46.615Z,69.00
2018-04-15T23:22:15.488Z,68.90
2018-04-15T23:24:44.381Z,68.90
2018-04-15T23:27:13.363Z,69.00
2018-04-15T23:29:42.678Z,69.40
2018-04-15T23:32:11.664Z,69.70
2018-04-15T23:34:40.619Z,69.80
2018-04-15T23:37:11.061Z,69.80
2018-04-15T23:39:39.999Z,69.70
2018-04-15T23:42:08.935Z,69.60
2018-04-15T23:44:37.806Z,69.40
2018-04-15T23:47:07.090Z,69.30
2018-04-15T23:49:36.003Z,70.00
2018-04-15T23:52:05.734Z,69.20
2018-04-15T23:54:35.389Z,69.40
2018-04-15T23:57:05.148Z,68.90
2018-04-15T23:59:34.846Z,68.80
